sensor_id;sensor_type;location;lat;lon;timestamp;P1;durP1;ratioP1;P2;durP2;ratioP2
20846;SDS011;10584;50.854;12.902;2022-10-16T00:00:44;0.90;;;0.80;;
20846;SDS011;10584;50.854;12.902;2022-10-16T00:05:47;3.47;;;0.67;;
20846;SDS011;10584;50.854;12.902;2022-10-16T00:10:50;2.10;;;0.90;;
20846;SDS011;10584;50.854;12.902;2022-10-16T00:15:54;1.00;;;0.90;;
20846;SDS011;10584;50.854;12.902;2022-10-16T00:21:02;2.03;;;0.70;;
20846;SDS011;10584;50.854;12.902;2022-10-16T00:26:07;3.00;;;1.00;;
20846;SDS011;10584;50.854;12.902;2022-10-16T00:31:14;1.13;;;0.87;;
20846;SDS011;10584;50.854;12.902;2022-10-16T00:36:20;3.13;;;1.00;;
20846;SDS011;10584;50.854;12.902;2022-10-16T00:41:25;3.37;;;1.27;;
20846;SDS011;10584;50.854;12.902;2022-10-16T00:51:40;1.10;;;0.90;;
20846;SDS011;10584;50.854;12.902;2022-10-16T00:56:45;2.67;;;0.90;;
20846;SDS011;10584;50.854;12.902;2022-10-16T01:01:48;1.50;;;0.80;;
20846;SDS011;10584;50.854;12.902;2022-10-16T01:06:56;1.33;;;0.80;;
20846;SDS011;10584;50.854;12.902;2022-10-16T01:12:41;1.30;;;0.67;;
20846;SDS011;10584;50.854;12.902;2022-10-16T01:17:53;0.70;;;0.70;;
20846;SDS011;10584;50.854;12.902;2022-10-16T01:28:38;1.50;;;0.80;;
20846;SDS011;10584;50.854;12.902;2022-10-16T01:33:47;1.80;;;0.80;;
20846;SDS011;10584;50.854;12.902;2022-10-16T01:38:59;0.70;;;0.70;;
20846;SDS011;10584;50.854;12.902;2022-10-16T01:44:08;1.83;;;0.60;;
20846;SDS011;10584;50.854;12.902;2022-10-16T01:49:25;0.80;;;0.80;;
20846;SDS011;10584;50.854;12.902;2022-10-16T01:54:31;0.80;;;0.80;;
20846;SDS011;10584;50.854;12.902;2022-10-16T01:59:44;2.30;;;0.90;;
20846;SDS011;10584;50.854;12.902;2022-10-16T02:04:53;0.67;;;0.60;;
20846;SDS011;10584;50.854;12.902;2022-10-16T02:10:00;1.50;;;0.80;;
20846;SDS011;10584;50.854;12.902;2022-10-16T02:15:03;0.80;;;0.63;;
20846;SDS011;10584;50.854;12.902;2022-10-16T02:20:07;0.90;;;0.70;;
20846;SDS011;10584;50.854;12.902;2022-10-16T02:25:22;1.97;;;0.90;;
20846;SDS011;10584;50.854;12.902;2022-10-16T02:30:36;1.13;;;0.73;;
20846;SDS011;10584;50.854;12.902;2022-10-16T02:35:40;0.90;;;0.70;;
20846;SDS011;10584;50.854;12.902;2022-10-16T02:40:46;2.00;;;0.70;;
20846;SDS011;10584;50.854;12.902;2022-10-16T02:45:49;1.23;;;0.70;;
20846;SDS011;10584;50.854;12.902;2022-10-16T02:50:52;4.53;;;0.90;;
20846;SDS011;10584;50.854;12.902;2022-10-16T02:55:55;3.30;;;0.80;;
20846;SDS011;10584;50.854;12.902;2022-10-16T03:00:57;1.87;;;0.77;;
20846;SDS011;10584;50.854;12.902;2022-10-16T03:06:00;1.67;;;0.90;;
20846;SDS011;10584;50.854;12.902;2022-10-16T03:11:04;2.43;;;1.00;;
20846;SDS011;10584;50.854;12.902;2022-10-16T03:16:07;1.17;;;0.70;;
20846;SDS011;10584;50.854;12.902;2022-10-16T03:21:09;3.77;;;0.90;;
20846;SDS011;10584;50.854;12.902;2022-10-16T03:26:12;1.57;;;0.80;;
20846;SDS011;10584;50.854;12.902;2022-10-16T03:31:15;1.03;;;0.93;;
20846;SDS011;10584;50.854;12.902;2022-10-16T03:36:18;1.17;;;1.07;;
20846;SDS011;10584;50.854;12.902;2022-10-16T03:41:21;6.77;;;1.20;;
20846;SDS011;10584;50.854;12.902;2022-10-16T03:46:24;3.53;;;1.00;;
20846;SDS011;10584;50.854;12.902;2022-10-16T03:51:27;1.53;;;0.90;;
20846;SDS011;10584;50.854;12.902;2022-10-16T03:56:29;4.17;;;0.93;;
20846;SDS011;10584;50.854;12.902;2022-10-16T04:01:32;2.40;;;1.17;;
20846;SDS011;10584;50.854;12.902;2022-10-16T04:06:35;1.97;;;1.10;;
20846;SDS011;10584;50.854;12.902;2022-10-16T04:11:38;1.33;;;1.20;;
20846;SDS011;10584;50.854;12.902;2022-10-16T04:16:40;4.13;;;1.10;;
20846;SDS011;10584;50.854;12.902;2022-10-16T04:21:43;2.03;;;1.10;;
20846;SDS011;10584;50.854;12.902;2022-10-16T04:26:46;3.00;;;1.20;;
20846;SDS011;10584;50.854;12.902;2022-10-16T04:31:49;1.23;;;1.10;;
20846;SDS011;10584;50.854;12.902;2022-10-16T04:36:52;3.43;;;1.23;;
20846;SDS011;10584;50.854;12.902;2022-10-16T04:41:55;4.67;;;1.10;;
20846;SDS011;10584;50.854;12.902;2022-10-16T04:46:57;4.00;;;1.20;;
20846;SDS011;10584;50.854;12.902;2022-10-16T04:52:00;3.13;;;1.30;;
20846;SDS011;10584;50.854;12.902;2022-10-16T04:57:03;1.03;;;0.90;;
20846;SDS011;10584;50.854;12.902;2022-10-16T05:02:06;4.30;;;1.03;;
20846;SDS011;10584;50.854;12.902;2022-10-16T05:07:09;2.90;;;1.10;;
20846;SDS011;10584;50.854;12.902;2022-10-16T05:12:12;1.10;;;1.00;;
20846;SDS011;10584;50.854;12.902;2022-10-16T05:17:14;1.63;;;0.93;;
20846;SDS011;10584;50.854;12.902;2022-10-16T05:22:17;2.43;;;0.90;;
20846;SDS011;10584;50.854;12.902;2022-10-16T05:27:20;1.37;;;0.90;;
20846;SDS011;10584;50.854;12.902;2022-10-16T05:32:23;1.00;;;0.90;;
20846;SDS011;10584;50.854;12.902;2022-10-16T05:37:27;3.57;;;1.00;;
20846;SDS011;10584;50.854;12.902;2022-10-16T05:42:30;2.33;;;0.90;;
20846;SDS011;10584;50.854;12.902;2022-10-16T05:47:32;3.50;;;1.00;;
20846;SDS011;10584;50.854;12.902;2022-10-16T05:52:38;1.00;;;0.90;;
20846;SDS011;10584;50.854;12.902;2022-10-16T05:57:40;2.23;;;0.80;;
20846;SDS011;10584;50.854;12.902;2022-10-16T06:02:43;1.00;;;0.90;;
20846;SDS011;10584;50.854;12.902;2022-10-16T06:07:46;2.13;;;0.90;;
20846;SDS011;10584;50.854;12.902;2022-10-16T06:12:48;0.80;;;0.80;;
20846;SDS011;10584;50.854;12.902;2022-10-16T06:17:51;0.63;;;0.63;;
20846;SDS011;10584;50.854;12.902;2022-10-16T06:22:54;1.03;;;0.70;;
20846;SDS011;10584;50.854;12.902;2022-10-16T06:27:57;1.20;;;0.70;;
20846;SDS011;10584;50.854;12.902;2022-10-16T06:32:59;1.17;;;0.67;;
20846;SDS011;10584;50.854;12.902;2022-10-16T06:38:02;1.00;;;0.77;;
20846;SDS011;10584;50.854;12.902;2022-10-16T06:43:05;1.73;;;0.70;;
20846;SDS011;10584;50.854;12.902;2022-10-16T06:48:08;0.97;;;0.70;;
20846;SDS011;10584;50.854;12.902;2022-10-16T06:53:11;1.07;;;0.70;;
20846;SDS011;10584;50.854;12.902;2022-10-16T06:58:14;0.90;;;0.70;;
20846;SDS011;10584;50.854;12.902;2022-10-16T07:03:16;2.40;;;0.80;;
20846;SDS011;10584;50.854;12.902;2022-10-16T07:08:19;0.90;;;0.80;;
20846;SDS011;10584;50.854;12.902;2022-10-16T07:13:22;0.80;;;0.80;;
20846;SDS011;10584;50.854;12.902;2022-10-16T07:18:25;1.40;;;0.83;;
20846;SDS011;10584;50.854;12.902;2022-10-16T07:23:31;1.10;;;0.90;;
20846;SDS011;10584;50.854;12.902;2022-10-16T07:28:34;4.10;;;0.80;;
20846;SDS011;10584;50.854;12.902;2022-10-16T07:33:38;0.90;;;0.80;;
20846;SDS011;10584;50.854;12.902;2022-10-16T07:38:42;1.73;;;1.07;;
20846;SDS011;10584;50.854;12.902;2022-10-16T07:43:45;1.33;;;1.10;;
20846;SDS011;10584;50.854;12.902;2022-10-16T07:48:50;1.20;;;0.93;;
20846;SDS011;10584;50.854;12.902;2022-10-16T07:53:52;1.33;;;1.00;;
20846;SDS011;10584;50.854;12.902;2022-10-16T07:58:55;2.83;;;1.17;;
20846;SDS011;10584;50.854;12.902;2022-10-16T08:03:58;1.10;;;1.00;;
20846;SDS011;10584;50.854;12.902;2022-10-16T08:09:01;1.30;;;1.10;;
20846;SDS011;10584;50.854;12.902;2022-10-16T08:14:04;2.67;;;1.20;;
20846;SDS011;10584;50.854;12.902;2022-10-16T08:19:07;2.00;;;1.33;;
20846;SDS011;10584;50.854;12.902;2022-10-16T08:24:09;1.50;;;1.20;;
20846;SDS011;10584;50.854;12.902;2022-10-16T08:29:13;1.93;;;1.53;;
20846;SDS011;10584;50.854;12.902;2022-10-16T08:34:16;2.30;;;1.40;;
20846;SDS011;10584;50.854;12.902;2022-10-16T08:39:19;1.77;;;1.43;;
20846;SDS011;10584;50.854;12.902;2022-10-16T08:49:38;1.80;;;1.40;;
20846;SDS011;10584;50.854;12.902;2022-10-16T08:54:45;3.50;;;1.40;;
20846;SDS011;10584;50.854;12.902;2022-10-16T08:59:53;2.33;;;1.40;;
20846;SDS011;10584;50.854;12.902;2022-10-16T09:20:50;1.40;;;1.20;;
20846;SDS011;10584;50.854;12.902;2022-10-16T09:26:12;3.00;;;1.20;;
20846;SDS011;10584;50.854;12.902;2022-10-16T09:31:21;3.53;;;1.30;;
20846;SDS011;10584;50.854;12.902;2022-10-16T09:36:25;1.30;;;1.20;;
20846;SDS011;10584;50.854;12.902;2022-10-16T09:41:30;2.27;;;1.10;;
20846;SDS011;10584;50.854;12.902;2022-10-16T09:46:36;1.60;;;1.13;;
20846;SDS011;10584;50.854;12.902;2022-10-16T09:51:41;4.33;;;1.30;;
20846;SDS011;10584;50.854;12.902;2022-10-16T09:56:44;1.53;;;1.10;;
20846;SDS011;10584;50.854;12.902;2022-10-16T10:01:51;1.13;;;1.03;;
20846;SDS011;10584;50.854;12.902;2022-10-16T10:06:56;5.27;;;1.20;;
20846;SDS011;10584;50.854;12.902;2022-10-16T10:12:00;1.50;;;1.10;;
20846;SDS011;10584;50.854;12.902;2022-10-16T10:17:14;1.77;;;1.00;;
20846;SDS011;10584;50.854;12.902;2022-10-16T10:33:09;1.57;;;1.20;;
20846;SDS011;10584;50.854;12.902;2022-10-16T10:38:27;2.67;;;1.40;;
20846;SDS011;10584;50.854;12.902;2022-10-16T10:43:41;1.20;;;1.10;;
20846;SDS011;10584;50.854;12.902;2022-10-16T10:54:58;2.07;;;1.23;;
20846;SDS011;10584;50.854;12.902;2022-10-16T11:11:14;1.50;;;1.17;;
20846;SDS011;10584;50.854;12.902;2022-10-16T11:16:31;1.43;;;1.00;;
20846;SDS011;10584;50.854;12.902;2022-10-16T11:21:56;2.17;;;1.13;;
20846;SDS011;10584;50.854;12.902;2022-10-16T11:27:07;1.70;;;1.10;;
20846;SDS011;10584;50.854;12.902;2022-10-16T11:32:36;2.17;;;1.10;;
20846;SDS011;10584;50.854;12.902;2022-10-16T11:37:43;1.20;;;1.10;;
20846;SDS011;10584;50.854;12.902;2022-10-16T11:42:54;2.50;;;1.20;;
20846;SDS011;10584;50.854;12.902;2022-10-16T11:59:36;2.67;;;1.20;;
20846;SDS011;10584;50.854;12.902;2022-10-16T12:04:38;3.47;;;1.00;;
20846;SDS011;10584;50.854;12.902;2022-10-16T12:09:48;3.73;;;1.30;;
20846;SDS011;10584;50.854;12.902;2022-10-16T12:15:01;1.50;;;1.13;;
20846;SDS011;10584;50.854;12.902;2022-10-16T12:20:31;2.93;;;1.10;;
20846;SDS011;10584;50.854;12.902;2022-10-16T12:25:38;1.87;;;1.10;;
20846;SDS011;10584;50.854;12.902;2022-10-16T12:30:58;1.17;;;0.90;;
20846;SDS011;10584;50.854;12.902;2022-10-16T12:36:16;1.23;;;0.90;;
20846;SDS011;10584;50.854;12.902;2022-10-16T12:41:34;1.20;;;0.97;;
20846;SDS011;10584;50.854;12.902;2022-10-16T12:46:41;1.07;;;0.83;;
20846;SDS011;10584;50.854;12.902;2022-10-16T12:51:43;2.67;;;1.00;;
20846;SDS011;10584;50.854;12.902;2022-10-16T13:12:47;2.07;;;0.90;;
20846;SDS011;10584;50.854;12.902;2022-10-16T13:23:54;1.30;;;0.90;;
20846;SDS011;10584;50.854;12.902;2022-10-16T13:29:12;2.57;;;0.90;;
20846;SDS011;10584;50.854;12.902;2022-10-16T13:34:17;1.00;;;0.80;;
20846;SDS011;10584;50.854;12.902;2022-10-16T13:39:23;2.27;;;0.80;;
20846;SDS011;10584;50.854;12.902;2022-10-16T13:44:35;1.83;;;0.90;;
20846;SDS011;10584;50.854;12.902;2022-10-16T13:49:44;2.20;;;1.00;;
20846;SDS011;10584;50.854;12.902;2022-10-16T13:54:47;1.20;;;1.00;;
20846;SDS011;10584;50.854;12.902;2022-10-16T13:59:50;2.47;;;0.90;;
20846;SDS011;10584;50.854;12.902;2022-10-16T14:04:54;1.33;;;0.97;;
20846;SDS011;10584;50.854;12.902;2022-10-16T14:10:22;1.27;;;1.00;;
20846;SDS011;10584;50.854;12.902;2022-10-16T14:15:27;1.33;;;1.10;;
20846;SDS011;10584;50.854;12.902;2022-10-16T14:20:32;1.43;;;1.10;;
20846;SDS011;10584;50.854;12.902;2022-10-16T14:25:36;2.07;;;0.90;;
20846;SDS011;10584;50.854;12.902;2022-10-16T14:30:48;3.23;;;0.70;;
20846;SDS011;10584;50.854;12.902;2022-10-16T14:36:25;3.90;;;0.90;;
20846;SDS011;10584;50.854;12.902;2022-10-16T14:41:22;1.50;;;0.70;;
20846;SDS011;10584;50.854;12.902;2022-10-16T14:46:33;0.87;;;0.70;;
20846;SDS011;10584;50.854;12.902;2022-10-16T14:51:41;0.97;;;0.90;;
20846;SDS011;10584;50.854;12.902;2022-10-16T14:56:47;1.23;;;0.90;;
20846;SDS011;10584;50.854;12.902;2022-10-16T15:01:52;1.37;;;0.90;;
20846;SDS011;10584;50.854;12.902;2022-10-16T15:06:55;1.47;;;0.90;;
20846;SDS011;10584;50.854;12.902;2022-10-16T15:11:57;2.40;;;1.00;;
20846;SDS011;10584;50.854;12.902;2022-10-16T15:17:00;1.40;;;1.00;;
20846;SDS011;10584;50.854;12.902;2022-10-16T15:22:03;2.07;;;0.80;;
20846;SDS011;10584;50.854;12.902;2022-10-16T15:27:06;1.63;;;1.00;;
20846;SDS011;10584;50.854;12.902;2022-10-16T15:32:10;2.03;;;1.10;;
20846;SDS011;10584;50.854;12.902;2022-10-16T15:37:13;2.67;;;1.17;;
20846;SDS011;10584;50.854;12.902;2022-10-16T15:42:15;1.90;;;1.10;;
20846;SDS011;10584;50.854;12.902;2022-10-16T15:47:18;1.10;;;1.00;;
20846;SDS011;10584;50.854;12.902;2022-10-16T15:52:21;2.53;;;1.20;;
20846;SDS011;10584;50.854;12.902;2022-10-16T15:57:24;2.30;;;1.30;;
20846;SDS011;10584;50.854;12.902;2022-10-16T16:02:29;1.83;;;1.20;;
20846;SDS011;10584;50.854;12.902;2022-10-16T16:07:32;4.53;;;1.47;;
20846;SDS011;10584;50.854;12.902;2022-10-16T16:12:36;4.60;;;1.30;;
20846;SDS011;10584;50.854;12.902;2022-10-16T16:17:40;5.33;;;1.27;;
20846;SDS011;10584;50.854;12.902;2022-10-16T16:22:42;5.63;;;2.60;;
20846;SDS011;10584;50.854;12.902;2022-10-16T16:27:45;4.57;;;3.00;;
20846;SDS011;10584;50.854;12.902;2022-10-16T16:32:48;2.87;;;1.80;;
20846;SDS011;10584;50.854;12.902;2022-10-16T16:37:51;6.70;;;1.80;;
20846;SDS011;10584;50.854;12.902;2022-10-16T16:42:53;2.13;;;1.50;;
20846;SDS011;10584;50.854;12.902;2022-10-16T16:47:56;6.43;;;1.70;;
20846;SDS011;10584;50.854;12.902;2022-10-16T16:52:59;3.00;;;1.60;;
20846;SDS011;10584;50.854;12.902;2022-10-16T16:58:02;2.27;;;1.63;;
20846;SDS011;10584;50.854;12.902;2022-10-16T17:03:06;2.37;;;1.80;;
20846;SDS011;10584;50.854;12.902;2022-10-16T17:08:08;3.03;;;2.00;;
20846;SDS011;10584;50.854;12.902;2022-10-16T17:13:11;5.87;;;1.67;;
20846;SDS011;10584;50.854;12.902;2022-10-16T17:18:14;4.13;;;1.97;;
20846;SDS011;10584;50.854;12.902;2022-10-16T17:23:17;4.87;;;2.00;;
20846;SDS011;10584;50.854;12.902;2022-10-16T17:28:21;8.20;;;2.10;;
20846;SDS011;10584;50.854;12.902;2022-10-16T17:33:24;4.73;;;2.03;;
20846;SDS011;10584;50.854;12.902;2022-10-16T17:38:26;3.07;;;2.10;;
20846;SDS011;10584;50.854;12.902;2022-10-16T17:43:29;7.27;;;1.87;;
20846;SDS011;10584;50.854;12.902;2022-10-16T17:48:36;5.10;;;2.13;;
20846;SDS011;10584;50.854;12.902;2022-10-16T17:53:40;2.10;;;1.77;;
20846;SDS011;10584;50.854;12.902;2022-10-16T17:58:46;3.27;;;2.03;;
20846;SDS011;10584;50.854;12.902;2022-10-16T18:04:04;9.67;;;2.80;;
20846;SDS011;10584;50.854;12.902;2022-10-16T18:09:13;5.93;;;3.60;;
20846;SDS011;10584;50.854;12.902;2022-10-16T18:14:18;7.93;;;3.90;;
20846;SDS011;10584;50.854;12.902;2022-10-16T18:19:21;8.53;;;4.33;;
20846;SDS011;10584;50.854;12.902;2022-10-16T18:24:26;6.83;;;4.40;;
20846;SDS011;10584;50.854;12.902;2022-10-16T18:29:29;13.17;;;4.20;;
20846;SDS011;10584;50.854;12.902;2022-10-16T18:34:32;7.10;;;4.77;;
20846;SDS011;10584;50.854;12.902;2022-10-16T18:39:37;10.53;;;4.87;;
20846;SDS011;10584;50.854;12.902;2022-10-16T18:44:40;7.63;;;4.70;;
20846;SDS011;10584;50.854;12.902;2022-10-16T18:49:43;7.27;;;4.70;;
20846;SDS011;10584;50.854;12.902;2022-10-16T18:54:49;9.13;;;4.63;;
20846;SDS011;10584;50.854;12.902;2022-10-16T18:59:56;11.23;;;5.13;;
20846;SDS011;10584;50.854;12.902;2022-10-16T19:04:59;11.60;;;4.87;;
20846;SDS011;10584;50.854;12.902;2022-10-16T19:10:06;12.00;;;4.80;;
20846;SDS011;10584;50.854;12.902;2022-10-16T19:15:09;16.63;;;5.60;;
20846;SDS011;10584;50.854;12.902;2022-10-16T19:20:12;10.50;;;5.53;;
20846;SDS011;10584;50.854;12.902;2022-10-16T19:25:15;10.67;;;5.87;;
20846;SDS011;10584;50.854;12.902;2022-10-16T19:30:18;9.80;;;5.07;;
20846;SDS011;10584;50.854;12.902;2022-10-16T19:35:21;9.13;;;4.77;;
20846;SDS011;10584;50.854;12.902;2022-10-16T19:40:24;7.60;;;5.13;;
20846;SDS011;10584;50.854;12.902;2022-10-16T19:45:27;11.20;;;5.23;;
20846;SDS011;10584;50.854;12.902;2022-10-16T19:50:30;11.20;;;5.37;;
20846;SDS011;10584;50.854;12.902;2022-10-16T19:55:33;11.33;;;5.70;;
20846;SDS011;10584;50.854;12.902;2022-10-16T20:00:37;12.80;;;5.47;;
20846;SDS011;10584;50.854;12.902;2022-10-16T20:05:49;11.03;;;5.43;;
20846;SDS011;10584;50.854;12.902;2022-10-16T20:10:57;13.50;;;6.17;;
20846;SDS011;10584;50.854;12.902;2022-10-16T20:16:01;15.90;;;6.13;;
20846;SDS011;10584;50.854;12.902;2022-10-16T20:21:12;13.90;;;5.57;;
20846;SDS011;10584;50.854;12.902;2022-10-16T20:26:17;9.27;;;5.63;;
20846;SDS011;10584;50.854;12.902;2022-10-16T20:31:23;11.83;;;5.73;;
20846;SDS011;10584;50.854;12.902;2022-10-16T20:36:28;16.67;;;6.27;;
20846;SDS011;10584;50.854;12.902;2022-10-16T20:41:32;9.27;;;6.00;;
20846;SDS011;10584;50.854;12.902;2022-10-16T20:46:35;10.93;;;6.07;;
20846;SDS011;10584;50.854;12.902;2022-10-16T20:51:38;12.63;;;6.00;;
20846;SDS011;10584;50.854;12.902;2022-10-16T20:56:41;9.10;;;5.60;;
20846;SDS011;10584;50.854;12.902;2022-10-16T21:01:44;11.93;;;6.00;;
20846;SDS011;10584;50.854;12.902;2022-10-16T21:06:47;12.50;;;5.47;;
20846;SDS011;10584;50.854;12.902;2022-10-16T21:11:50;9.90;;;5.20;;
20846;SDS011;10584;50.854;12.902;2022-10-16T21:16:52;11.40;;;6.00;;
20846;SDS011;10584;50.854;12.902;2022-10-16T21:21:55;9.70;;;6.00;;
20846;SDS011;10584;50.854;12.902;2022-10-16T21:26:58;12.67;;;6.17;;
20846;SDS011;10584;50.854;12.902;2022-10-16T21:32:01;13.47;;;6.00;;
20846;SDS011;10584;50.854;12.902;2022-10-16T21:37:04;12.20;;;6.30;;
20846;SDS011;10584;50.854;12.902;2022-10-16T21:42:07;9.50;;;6.20;;
20846;SDS011;10584;50.854;12.902;2022-10-16T21:47:09;14.00;;;6.10;;
20846;SDS011;10584;50.854;12.902;2022-10-16T21:52:12;17.57;;;6.60;;
20846;SDS011;10584;50.854;12.902;2022-10-16T21:57:15;13.77;;;6.90;;
20846;SDS011;10584;50.854;12.902;2022-10-16T22:02:18;9.10;;;6.00;;
20846;SDS011;10584;50.854;12.902;2022-10-16T22:07:20;10.47;;;6.10;;
20846;SDS011;10584;50.854;12.902;2022-10-16T22:12:23;8.13;;;5.40;;
20846;SDS011;10584;50.854;12.902;2022-10-16T22:17:26;9.53;;;5.67;;
20846;SDS011;10584;50.854;12.902;2022-10-16T22:22:30;17.13;;;5.80;;
20846;SDS011;10584;50.854;12.902;2022-10-16T22:27:33;17.27;;;6.23;;
20846;SDS011;10584;50.854;12.902;2022-10-16T22:32:35;11.57;;;6.00;;
20846;SDS011;10584;50.854;12.902;2022-10-16T22:37:38;11.03;;;6.17;;
20846;SDS011;10584;50.854;12.902;2022-10-16T22:42:41;10.27;;;5.87;;
20846;SDS011;10584;50.854;12.902;2022-10-16T22:47:44;10.67;;;5.70;;
20846;SDS011;10584;50.854;12.902;2022-10-16T22:52:47;12.50;;;5.83;;
20846;SDS011;10584;50.854;12.902;2022-10-16T22:57:50;14.43;;;5.97;;
20846;SDS011;10584;50.854;12.902;2022-10-16T23:02:55;14.07;;;6.00;;
20846;SDS011;10584;50.854;12.902;2022-10-16T23:07:58;15.13;;;5.63;;
20846;SDS011;10584;50.854;12.902;2022-10-16T23:13:01;11.90;;;5.70;;
20846;SDS011;10584;50.854;12.902;2022-10-16T23:18:04;13.60;;;5.30;;
20846;SDS011;10584;50.854;12.902;2022-10-16T23:23:07;8.37;;;5.50;;
20846;SDS011;10584;50.854;12.902;2022-10-16T23:28:10;15.07;;;5.50;;
20846;SDS011;10584;50.854;12.902;2022-10-16T23:33:13;14.07;;;6.10;;
20846;SDS011;10584;50.854;12.902;2022-10-16T23:38:16;10.33;;;5.80;;
20846;SDS011;10584;50.854;12.902;2022-10-16T23:43:19;11.00;;;6.73;;
20846;SDS011;10584;50.854;12.902;2022-10-16T23:48:22;14.67;;;6.50;;
20846;SDS011;10584;50.854;12.902;2022-10-16T23:53:25;10.53;;;6.17;;
20846;SDS011;10584;50.854;12.902;2022-10-16T23:58:27;10.90;;;5.77;;
